Mendip, United Kingdom
Current Conditions -  °F | °C
As of 1:20 AM on Saturday 25 Oct 2014 (Local Time) from EGGD Reporting Station
Broken Clouds Broken Clouds  
Wind Chill: 50°   Ceiling: 3800
Heat Index: 50°   Visibility: 6mi
Dew Point: 46°   Wind: 5mph
Humidity: 87%   Direction: 220°SW
Pressure: 30"   Gusts: NA
Location:  51.24°N, 2.63°W
Report Text: EGGD 250020Z 22004KT 9999 BKN038 10/08 Q1016
Loading
Personal Weather Stations






























Interactive Weather Map
Tropical Storm Tracking
New forecast layout! Learn more

10-Day Weather Forecast

Advertisements
Track Severe Weather on mobile